Alton, Kansas
Current Conditions -  °F | °C
As of 8:53 AM on Friday 19 Dec 2014 (Local Time) from KRSL Reporting Station
Haze Haze  
Wind Chill: 26°   Ceiling: 1700
Heat Index: 32°   Visibility: 4mi
Dew Point: 31°   Wind: 7mph
Humidity: 96%   Direction: 160°SSE
Pressure: 30.17"   Gusts: NA
Location:  39.47°N, 98.95°W
Report Text: KRSL 191453Z AUTO 16006KT 4SM BR OVC017 00/M01 A3017 RMK AO2 SLP235 T00001006 53009
Loading
Personal Weather Stations






























Interactive Weather Map New forecast layout! Learn more

10-Day Weather Forecast

Advertisements
Track Severe Weather on mobile